createdAt,value
2023-01-27T00:01:17.522Z,99.90
2023-01-27T00:03:45.956Z,99.90
2023-01-27T00:06:13.696Z,99.90
2023-01-27T00:08:41.437Z,99.90
2023-01-27T00:11:27.566Z,99.90
2023-01-27T00:13:55.991Z,99.90
2023-01-27T00:16:23.717Z,99.90
2023-01-27T00:18:51.402Z,99.90
2023-01-27T00:21:37.507Z,99.90
2023-01-27T00:24:24.039Z,99.90
2023-01-27T00:26:51.775Z,99.90
2023-01-27T00:29:19.471Z,99.90
2023-01-27T00:32:05.450Z,99.90
2023-01-27T00:34:33.155Z,99.90
2023-01-27T00:37:00.884Z,99.90
2023-01-27T00:39:28.782Z,99.90
2023-01-27T00:41:56.471Z,99.90
2023-01-27T00:44:24.246Z,99.90
2023-01-27T00:46:52.035Z,99.90
2023-01-27T00:49:19.863Z,99.90
2023-01-27T00:51:47.761Z,99.90
2023-01-27T00:54:16.516Z,99.90
2023-01-27T00:56:46.950Z,99.90
2023-01-27T00:59:14.699Z,99.90
2023-01-27T01:01:42.468Z,99.90
2023-01-27T01:04:10.206Z,99.90
2023-01-27T01:06:37.952Z,99.90
2023-01-27T01:09:05.780Z,99.90
2023-01-27T01:11:33.546Z,99.90
2023-01-27T01:14:01.329Z,99.90
2023-01-27T01:16:28.991Z,99.90
2023-01-27T01:18:58.559Z,99.90
2023-01-27T01:21:26.747Z,99.90
2023-01-27T01:23:54.464Z,99.90
2023-01-27T01:26:22.574Z,99.90
2023-01-27T01:28:50.509Z,99.90
2023-01-27T01:31:20.212Z,99.90
2023-01-27T01:33:48.639Z,99.90
2023-01-27T01:36:20.598Z,99.90
2023-01-27T01:38:49.151Z,99.90
2023-01-27T01:41:20.636Z,99.90
2023-01-27T01:43:49.696Z,99.90
2023-01-27T01:46:18.987Z,99.90
2023-01-27T01:49:00.371Z,99.90
2023-01-27T01:51:33.114Z,99.90
2023-01-27T01:54:09.621Z,99.90
2023-01-27T01:56:52.977Z,99.90
2023-01-27T01:59:28.968Z,99.90
2023-01-27T02:01:59.934Z,99.90
2023-01-27T02:04:51.538Z,99.90
2023-01-27T02:07:45.203Z,99.90
2023-01-27T02:10:13.492Z,99.90
2023-01-27T02:12:41.329Z,99.90
2023-01-27T02:15:10.630Z,99.90
2023-01-27T02:17:38.903Z,99.90
2023-01-27T02:20:22.124Z,99.90
2023-01-27T02:23:00.584Z,99.90
2023-01-27T02:25:37.450Z,99.90
2023-01-27T02:28:08.365Z,99.90
2023-01-27T02:30:36.183Z,99.90
2023-01-27T02:33:15.984Z,99.90
2023-01-27T02:36:09.540Z,99.90
2023-01-27T02:38:50.518Z,99.90
2023-01-27T02:41:25.228Z,99.90
2023-01-27T02:43:53.710Z,99.90
2023-01-27T02:46:21.855Z,99.90
2023-01-27T02:48:49.679Z,99.90
2023-01-27T02:51:17.704Z,99.90
2023-01-27T02:53:46.468Z,99.90
2023-01-27T02:56:14.347Z,99.90
2023-01-27T02:58:43.367Z,99.90
2023-01-27T03:01:17.937Z,99.90
2023-01-27T03:03:47.637Z,99.90
2023-01-27T03:06:20.324Z,99.90
2023-01-27T03:08:48.674Z,99.90
2023-01-27T03:11:40.124Z,99.90
2023-01-27T03:14:08.894Z,99.90
2023-01-27T03:16:55.226Z,99.90
2023-01-27T03:19:22.986Z,99.90
2023-01-27T03:21:53.962Z,99.90
2023-01-27T03:24:23.328Z,99.90
2023-01-27T03:26:53.235Z,99.90
2023-01-27T03:29:46.611Z,99.90
2023-01-27T03:32:14.876Z,99.90
2023-01-27T03:34:52.804Z,99.90
2023-01-27T03:37:50.671Z,99.90
2023-01-27T03:40:36.951Z,99.90
2023-01-27T03:43:23.148Z,99.90
2023-01-27T03:46:10.200Z,99.90
2023-01-27T03:48:38.470Z,99.90
2023-01-27T03:51:08.701Z,99.90
2023-01-27T03:53:37.367Z,99.90
2023-01-27T03:56:06.315Z,99.90
2023-01-27T03:58:35.972Z,99.90
2023-01-27T04:01:19.151Z,99.90
2023-01-27T04:04:06.085Z,99.90
2023-01-27T04:06:55.415Z,99.90
2023-01-27T04:09:36.604Z,99.90
2023-01-27T04:12:06.737Z,99.90
2023-01-27T04:14:38.974Z,99.90
2023-01-27T04:17:18.758Z,99.90
2023-01-27T04:19:47.865Z,99.90
2023-01-27T04:22:18.259Z,99.90
2023-01-27T04:24:45.982Z,99.90
2023-01-27T04:27:20.491Z,99.90
2023-01-27T04:29:48.302Z,99.90
2023-01-27T04:32:16.114Z,99.90
2023-01-27T04:34:43.866Z,99.90
2023-01-27T04:37:11.591Z,99.90
2023-01-27T04:39:39.530Z,99.90
2023-01-27T04:42:07.237Z,99.90
2023-01-27T04:44:34.869Z,99.90
2023-01-27T04:47:02.574Z,99.90
2023-01-27T04:49:30.195Z,99.90
2023-01-27T04:51:57.854Z,99.90
2023-01-27T04:54:25.736Z,99.90
2023-01-27T04:57:03.751Z,99.90
2023-01-27T04:59:31.508Z,99.90
2023-01-27T05:01:59.631Z,99.90
2023-01-27T05:04:27.455Z,99.90
2023-01-27T05:06:55.312Z,99.90
2023-01-27T05:09:23.124Z,99.90
2023-01-27T05:11:50.843Z,99.90
2023-01-27T05:14:18.690Z,99.90
2023-01-27T05:16:46.438Z,99.90
2023-01-27T05:19:14.121Z,99.90
2023-01-27T05:21:43.445Z,99.90
2023-01-27T05:24:11.740Z,99.90
2023-01-27T05:26:39.565Z,99.90
2023-01-27T05:29:07.241Z,99.90
2023-01-27T05:31:36.608Z,99.90
2023-01-27T05:34:04.534Z,99.90
2023-01-27T05:36:32.349Z,99.90
2023-01-27T05:39:00.246Z,99.90
2023-01-27T05:41:33.143Z,99.90
2023-01-27T05:44:01.044Z,99.90
2023-01-27T05:46:31.204Z,99.90
2023-01-27T05:49:07.273Z,99.90
2023-01-27T05:51:37.797Z,99.90
2023-01-27T05:54:05.831Z,99.90
2023-01-27T05:56:33.842Z,99.90
2023-01-27T05:59:01.576Z,99.90
2023-01-27T06:01:31.915Z,99.90
2023-01-27T06:04:00.174Z,99.90
2023-01-27T06:06:30.116Z,99.90
2023-01-27T06:08:58.452Z,99.90
2023-01-27T06:11:26.480Z,99.90
2023-01-27T06:13:54.470Z,99.90
2023-01-27T06:16:23.707Z,99.90
2023-01-27T06:18:52.028Z,99.90
2023-01-27T06:21:20.777Z,99.90
2023-01-27T06:23:49.608Z,99.90
2023-01-27T06:26:19.346Z,99.90
2023-01-27T06:28:47.753Z,99.90
2023-01-27T06:31:18.692Z,99.90
2023-01-27T06:33:46.682Z,99.90
2023-01-27T06:36:16.880Z,99.90
2023-01-27T06:38:46.130Z,99.90
2023-01-27T06:41:13.894Z,99.90
2023-01-27T06:43:41.701Z,99.90
2023-01-27T06:46:09.619Z,99.90
2023-01-27T06:48:38.254Z,99.90
2023-01-27T06:51:06.286Z,99.90
2023-01-27T06:53:35.089Z,99.90
2023-01-27T06:56:02.867Z,99.90
2023-01-27T06:58:30.735Z,99.90
2023-01-27T07:00:58.826Z,99.90
2023-01-27T07:03:26.972Z,99.90
2023-01-27T07:05:54.689Z,99.90
2023-01-27T07:08:22.404Z,99.90
2023-01-27T07:10:50.169Z,99.90
2023-01-27T07:13:19.047Z,99.90
2023-01-27T07:15:47.041Z,99.90
2023-01-27T07:18:14.828Z,99.90
2023-01-27T07:20:42.701Z,99.90
2023-01-27T07:23:10.980Z,99.90
2023-01-27T07:25:39.552Z,99.90
2023-01-27T07:28:07.284Z,99.90
2023-01-27T07:30:35.511Z,99.90
2023-01-27T07:33:05.258Z,99.90
2023-01-27T07:35:33.014Z,99.90
2023-01-27T07:38:00.905Z,99.90
2023-01-27T07:40:28.837Z,99.90
2023-01-27T07:43:00.977Z,99.90
2023-01-27T07:45:29.748Z,99.90
2023-01-27T07:48:06.006Z,99.90
2023-01-27T07:50:34.525Z,99.90
2023-01-27T07:53:04.563Z,99.90
2023-01-27T07:55:33.496Z,99.90
2023-01-27T07:58:01.400Z,99.90
2023-01-27T08:00:30.395Z,99.90
2023-01-27T08:02:59.727Z,99.90
2023-01-27T08:05:28.944Z,99.90
2023-01-27T08:07:58.716Z,99.90
2023-01-27T08:10:27.090Z,99.90
2023-01-27T08:12:54.797Z,99.90
2023-01-27T08:15:23.522Z,99.90
2023-01-27T08:17:59.016Z,99.90
2023-01-27T08:20:28.000Z,99.90
2023-01-27T08:22:56.314Z,99.90
2023-01-27T08:25:24.507Z,99.90
2023-01-27T08:27:53.683Z,99.90
2023-01-27T08:30:22.055Z,99.90
2023-01-27T08:32:50.313Z,99.90
2023-01-27T08:35:19.556Z,99.90
2023-01-27T08:37:49.015Z,99.90
2023-01-27T08:40:17.477Z,99.90
2023-01-27T08:42:45.443Z,99.90
2023-01-27T08:45:13.596Z,99.90
2023-01-27T08:47:41.428Z,99.90
2023-01-27T08:50:10.060Z,99.90
2023-01-27T08:52:37.802Z,99.90
2023-01-27T08:55:05.742Z,99.90
2023-01-27T08:57:35.784Z,99.90
2023-01-27T09:00:06.954Z,99.90
2023-01-27T09:02:35.553Z,99.90
2023-01-27T09:05:03.476Z,99.90
2023-01-27T09:07:31.635Z,99.90
2023-01-27T09:10:13.204Z,99.90
2023-01-27T09:12:42.910Z,99.90
2023-01-27T09:15:11.803Z,99.90
2023-01-27T09:17:39.614Z,99.90
2023-01-27T09:20:08.550Z,99.90
2023-01-27T09:22:37.998Z,99.90
2023-01-27T09:25:06.739Z,99.90
2023-01-27T09:27:39.508Z,99.90
2023-01-27T09:30:09.992Z,99.90
2023-01-27T09:32:38.270Z,99.90
2023-01-27T09:35:06.581Z,99.90
2023-01-27T09:37:40.161Z,99.90
2023-01-27T09:40:28.355Z,99.90
2023-01-27T09:43:08.035Z,99.90
2023-01-27T09:45:47.769Z,99.90
2023-01-27T09:48:40.594Z,99.90
2023-01-27T09:51:24.594Z,99.90
2023-01-27T09:54:00.459Z,99.90
2023-01-27T09:56:51.607Z,99.90
2023-01-27T09:59:28.081Z,99.90
2023-01-27T10:01:58.772Z,99.90
2023-01-27T10:04:50.048Z,99.90
2023-01-27T10:07:43.410Z,99.90
2023-01-27T10:10:26.613Z,99.90
2023-01-27T10:13:11.869Z,99.90
2023-01-27T10:15:59.837Z,99.90
2023-01-27T10:18:43.343Z,99.90
2023-01-27T10:21:38.231Z,99.90
2023-01-27T10:24:35.416Z,99.90
2023-01-27T10:27:23.389Z,99.90
2023-01-27T10:30:12.597Z,99.90
2023-01-27T10:33:09.312Z,99.90
2023-01-27T10:36:04.150Z,99.90
2023-01-27T10:38:52.542Z,99.90
2023-01-27T10:41:39.785Z,99.90
2023-01-27T10:44:22.688Z,99.90
2023-01-27T10:47:24.376Z,99.90
2023-01-27T10:50:00.280Z,99.90
2023-01-27T10:52:43.958Z,99.90
2023-01-27T10:55:15.024Z,99.90
2023-01-27T10:57:48.105Z,99.90
2023-01-27T11:01:12.929Z,99.90
2023-01-27T11:03:25.819Z,99.90
2023-01-27T11:06:24.630Z,99.90
2023-01-27T11:08:57.123Z,99.90
2023-01-27T11:11:44.818Z,99.90
2023-01-27T11:14:53.186Z,99.90
2023-01-27T11:17:23.610Z,99.90
2023-01-27T11:20:21.531Z,99.90
2023-01-27T11:23:19.336Z,99.90
2023-01-27T11:26:11.255Z,99.90
2023-01-27T11:29:15.882Z,99.90
2023-01-27T11:31:58.818Z,99.90
2023-01-27T11:34:49.360Z,99.90
2023-01-27T11:37:31.180Z,99.90
2023-01-27T11:39:59.221Z,99.70
2023-01-27T11:42:35.438Z,99.90
2023-01-27T11:45:03.397Z,99.90
2023-01-27T11:47:37.045Z,99.60
2023-01-27T11:50:05.941Z,99.90
2023-01-27T11:52:33.815Z,98.40
2023-01-27T11:55:13.576Z,98.50
2023-01-27T11:57:53.653Z,99.90
2023-01-27T12:00:35.142Z,99.90
2023-01-27T12:03:18.335Z,99.60
2023-01-27T12:05:52.766Z,98.90
2023-01-27T12:08:38.683Z,98.50
2023-01-27T12:11:29.732Z,98.30
2023-01-27T12:14:02.901Z,98.90
2023-01-27T12:16:47.914Z,98.30
2023-01-27T12:19:25.486Z,98.00
2023-01-27T12:21:58.219Z,97.90
2023-01-27T12:24:33.371Z,97.30
2023-01-27T12:27:03.468Z,96.90
2023-01-27T12:29:42.198Z,97.80
2023-01-27T12:32:22.309Z,96.60
2023-01-27T12:34:56.605Z,96.60
2023-01-27T12:37:32.132Z,96.10
2023-01-27T12:40:06.734Z,95.90
2023-01-27T12:42:42.236Z,97.20
2023-01-27T12:45:22.216Z,96.40
2023-01-27T12:48:02.522Z,96.70
2023-01-27T12:50:38.336Z,96.40
2023-01-27T12:53:19.181Z,95.90
2023-01-27T12:55:56.596Z,95.50
2023-01-27T12:58:45.110Z,95.50
2023-01-27T13:01:31.248Z,96.10
2023-01-27T13:04:07.127Z,95.70
2023-01-27T13:06:48.915Z,95.60
2023-01-27T13:10:03.018Z,98.70
2023-01-27T13:12:59.231Z,95.30
2023-01-27T13:15:31.259Z,94.90
2023-01-27T13:18:12.051Z,94.80
2023-01-27T13:20:47.243Z,93.90
2023-01-27T13:23:28.034Z,95.00
2023-01-27T13:26:05.401Z,94.80
2023-01-27T13:29:11.414Z,94.40
2023-01-27T13:32:01.636Z,95.00
2023-01-27T13:35:01.590Z,94.50
2023-01-27T13:37:37.456Z,94.30
2023-01-27T13:40:20.579Z,96.00
2023-01-27T13:43:13.678Z,95.10
2023-01-27T13:45:53.931Z,95.20
2023-01-27T13:48:40.298Z,94.90
2023-01-27T13:51:23.005Z,95.00
2023-01-27T13:54:03.492Z,94.70
2023-01-27T13:56:46.414Z,95.40
2023-01-27T13:59:38.185Z,95.40
2023-01-27T14:02:35.317Z,95.40
2023-01-27T14:05:21.251Z,94.50
2023-01-27T14:08:19.278Z,95.20
2023-01-27T14:11:06.278Z,95.00
2023-01-27T14:13:42.538Z,95.00
2023-01-27T14:16:18.686Z,95.40
2023-01-27T14:18:57.536Z,95.70
2023-01-27T14:21:53.831Z,95.60
2023-01-27T14:25:00.284Z,95.40
2023-01-27T14:27:44.894Z,95.40
2023-01-27T14:30:22.809Z,95.40
2023-01-27T14:33:00.457Z,95.40
2023-01-27T14:35:31.074Z,96.10
2023-01-27T14:38:16.704Z,95.10
2023-01-27T14:40:56.607Z,95.10
2023-01-27T14:43:42.385Z,95.40
2023-01-27T14:46:34.543Z,96.20
2023-01-27T14:49:12.403Z,96.70
2023-01-27T14:51:45.555Z,96.70
2023-01-27T14:54:48.357Z,96.60
2023-01-27T14:57:39.198Z,96.30
2023-01-27T15:00:30.594Z,96.40
2023-01-27T15:03:32.963Z,95.50
2023-01-27T15:06:30.871Z,95.70
2023-01-27T15:09:32.502Z,96.30
2023-01-27T15:12:18.817Z,96.60
2023-01-27T15:15:12.647Z,96.50
2023-01-27T15:18:15.762Z,97.30
2023-01-27T15:20:43.647Z,98.30
2023-01-27T15:23:38.638Z,97.60
2023-01-27T15:26:09.365Z,97.90
2023-01-27T15:28:42.790Z,97.60
2023-01-27T15:31:24.087Z,97.90
2023-01-27T15:34:15.289Z,98.50
2023-01-27T15:37:10.892Z,98.30
2023-01-27T15:40:15.569Z,98.20
2023-01-27T15:43:02.719Z,98.20
2023-01-27T15:45:30.662Z,98.70
2023-01-27T15:48:22.553Z,99.40
2023-01-27T15:51:17.295Z,99.80
2023-01-27T15:53:53.892Z,99.00
2023-01-27T15:56:39.388Z,99.40
2023-01-27T15:59:12.060Z,99.20
2023-01-27T16:01:39.827Z,99.80
2023-01-27T16:04:16.203Z,99.50
2023-01-27T16:06:54.526Z,99.90
2023-01-27T16:09:47.191Z,99.90
2023-01-27T16:12:24.320Z,99.90
2023-01-27T16:15:01.145Z,99.90
2023-01-27T16:17:33.718Z,99.90
2023-01-27T16:20:21.106Z,99.90
2023-01-27T16:22:55.645Z,99.90
2023-01-27T16:25:46.269Z,99.90
2023-01-27T16:28:22.862Z,99.90
2023-01-27T16:31:29.793Z,99.90
2023-01-27T16:34:00.589Z,99.90
2023-01-27T16:36:35.059Z,99.90
2023-01-27T16:39:43.488Z,99.90
2023-01-27T16:42:15.662Z,99.90
2023-01-27T16:44:52.155Z,99.90
2023-01-27T16:47:27.946Z,99.90
2023-01-27T16:50:00.138Z,99.90
2023-01-27T16:52:41.761Z,99.90
2023-01-27T16:55:22.223Z,99.90
2023-01-27T16:57:52.509Z,99.90
2023-01-27T17:00:29.776Z,99.90
2023-01-27T17:03:00.825Z,99.90
2023-01-27T17:05:29.276Z,99.90
2023-01-27T17:08:03.960Z,99.90
2023-01-27T17:10:35.582Z,99.90
2023-01-27T17:13:03.581Z,99.90
2023-01-27T17:15:38.250Z,99.90
2023-01-27T17:18:11.537Z,99.90
2023-01-27T17:20:42.896Z,99.90
2023-01-27T17:23:29.303Z,99.90
2023-01-27T17:25:57.524Z,99.90
2023-01-27T17:28:27.750Z,99.90
2023-01-27T17:31:07.454Z,99.90
2023-01-27T17:33:37.363Z,99.90
2023-01-27T17:36:11.395Z,99.90
2023-01-27T17:38:49.425Z,99.90
2023-01-27T17:41:35.893Z,99.90
2023-01-27T17:44:14.473Z,99.90
2023-01-27T17:46:42.246Z,99.90
2023-01-27T17:49:17.229Z,99.90
2023-01-27T17:51:53.648Z,99.90
2023-01-27T17:54:41.595Z,99.90
2023-01-27T17:57:33.256Z,99.90
2023-01-27T18:00:33.684Z,99.90
2023-01-27T18:03:13.614Z,99.90
2023-01-27T18:05:45.092Z,99.90
2023-01-27T18:08:12.763Z,99.90
2023-01-27T18:10:45.355Z,99.90
2023-01-27T18:13:19.133Z,99.90
2023-01-27T18:16:00.073Z,99.90
2023-01-27T18:18:32.857Z,99.90
2023-01-27T18:21:18.944Z,99.90
2023-01-27T18:23:52.945Z,99.90
2023-01-27T18:26:23.558Z,99.90
2023-01-27T18:28:56.770Z,99.90
2023-01-27T18:31:29.888Z,99.90
2023-01-27T18:34:05.001Z,99.90
2023-01-27T18:36:36.164Z,99.90
2023-01-27T18:39:27.742Z,99.90
2023-01-27T18:41:55.758Z,99.90
2023-01-27T18:44:27.408Z,99.90
2023-01-27T18:47:18.473Z,99.90
2023-01-27T18:50:00.433Z,99.90
2023-01-27T18:52:29.460Z,99.90
2023-01-27T18:55:02.786Z,99.90
2023-01-27T18:57:30.594Z,99.90
2023-01-27T18:59:58.328Z,99.90
2023-01-27T19:02:26.101Z,99.90
2023-01-27T19:04:53.935Z,99.90
2023-01-27T19:07:21.571Z,99.90
2023-01-27T19:09:49.328Z,99.90
2023-01-27T19:12:17.008Z,99.90
2023-01-27T19:14:46.716Z,99.90
2023-01-27T19:17:22.762Z,99.90
2023-01-27T19:19:50.573Z,99.90
2023-01-27T19:22:19.926Z,99.90
2023-01-27T19:24:48.917Z,99.90
2023-01-27T19:27:19.123Z,99.90
2023-01-27T19:29:46.972Z,99.90
2023-01-27T19:32:15.517Z,99.90
2023-01-27T19:34:43.258Z,99.90
2023-01-27T19:37:18.442Z,99.90
2023-01-27T19:39:47.064Z,99.90
2023-01-27T19:42:16.039Z,99.90
2023-01-27T19:44:43.759Z,99.90
2023-01-27T19:47:13.437Z,99.90
2023-01-27T19:49:41.846Z,99.90
2023-01-27T19:52:10.222Z,99.90
2023-01-27T19:54:38.013Z,99.90
2023-01-27T19:57:06.435Z,99.90
2023-01-27T19:59:34.155Z,99.90
2023-01-27T20:02:01.898Z,99.90
2023-01-27T20:04:29.857Z,99.90
2023-01-27T20:06:57.565Z,99.90
2023-01-27T20:09:25.226Z,99.90
2023-01-27T20:11:52.912Z,99.90
2023-01-27T20:14:23.653Z,99.90
2023-01-27T20:16:51.812Z,99.90
2023-01-27T20:19:19.527Z,99.90
2023-01-27T20:21:47.583Z,99.90
2023-01-27T20:24:16.720Z,99.90
2023-01-27T20:26:45.372Z,99.90
2023-01-27T20:29:14.233Z,99.90
2023-01-27T20:31:42.313Z,99.90
2023-01-27T20:34:10.103Z,99.90
2023-01-27T20:36:37.829Z,99.90
2023-01-27T20:39:06.007Z,99.90
2023-01-27T20:41:34.007Z,99.90
2023-01-27T20:44:01.699Z,99.90
2023-01-27T20:46:30.598Z,99.90
2023-01-27T20:49:01.281Z,99.90
2023-01-27T20:51:29.031Z,99.90
2023-01-27T20:53:57.938Z,99.90
2023-01-27T20:56:25.593Z,99.90
2023-01-27T20:58:54.447Z,99.90
2023-01-27T21:01:23.705Z,99.90
2023-01-27T21:03:52.036Z,99.90
2023-01-27T21:06:20.342Z,99.90
2023-01-27T21:08:49.372Z,99.90
2023-01-27T21:11:19.729Z,99.90
2023-01-27T21:13:48.297Z,99.90
2023-01-27T21:16:16.099Z,99.90
2023-01-27T21:18:44.295Z,99.90
2023-01-27T21:21:26.970Z,99.90
2023-01-27T21:23:55.392Z,99.90
2023-01-27T21:26:23.395Z,99.90
2023-01-27T21:28:51.210Z,99.90
2023-01-27T21:31:24.471Z,99.90
2023-01-27T21:33:52.272Z,99.90
2023-01-27T21:36:20.010Z,99.90
2023-01-27T21:38:50.584Z,99.90
2023-01-27T21:41:38.416Z,99.90
2023-01-27T21:44:32.448Z,99.90
2023-01-27T21:47:00.310Z,99.90
2023-01-27T21:49:28.135Z,99.90
2023-01-27T21:51:55.820Z,99.90
2023-01-27T21:54:23.519Z,99.90
2023-01-27T21:56:51.200Z,99.90
2023-01-27T21:59:18.962Z,99.90
2023-01-27T22:01:46.672Z,99.90
2023-01-27T22:04:14.406Z,99.90
2023-01-27T22:06:42.073Z,99.90
2023-01-27T22:09:10.298Z,99.90
2023-01-27T22:11:37.993Z,99.90
2023-01-27T22:14:05.710Z,99.90
2023-01-27T22:16:33.601Z,99.90
2023-01-27T22:19:01.447Z,99.90
2023-01-27T22:21:29.390Z,99.90
2023-01-27T22:23:57.135Z,99.90
2023-01-27T22:26:24.858Z,99.90
2023-01-27T22:28:52.524Z,99.90
2023-01-27T22:31:20.213Z,99.90
2023-01-27T22:33:47.940Z,99.90
2023-01-27T22:36:16.005Z,99.90
2023-01-27T22:38:43.642Z,99.90
2023-01-27T22:41:11.432Z,99.90
2023-01-27T22:43:39.142Z,99.90
2023-01-27T22:46:06.872Z,99.90
2023-01-27T22:48:34.776Z,99.90
2023-01-27T22:51:06.358Z,99.90
2023-01-27T22:53:34.092Z,99.90
2023-01-27T22:56:03.437Z,99.90
2023-01-27T22:58:31.955Z,99.90
2023-01-27T23:00:59.799Z,99.90
2023-01-27T23:03:27.692Z,99.90
2023-01-27T23:05:55.297Z,99.90
2023-01-27T23:08:23.256Z,99.90
2023-01-27T23:10:51.367Z,99.90
2023-01-27T23:13:19.075Z,99.90
2023-01-27T23:15:46.778Z,99.90
2023-01-27T23:18:14.480Z,99.90
2023-01-27T23:20:42.830Z,99.90
2023-01-27T23:23:11.252Z,99.90
2023-01-27T23:25:45.275Z,99.90
2023-01-27T23:28:13.885Z,99.90
2023-01-27T23:30:46.089Z,99.90
2023-01-27T23:33:15.527Z,99.90
2023-01-27T23:35:43.283Z,99.90
2023-01-27T23:38:26.341Z,99.90
2023-01-27T23:41:13.750Z,99.90
2023-01-27T23:43:41.495Z,99.90
2023-01-27T23:46:09.339Z,99.90
2023-01-27T23:48:38.651Z,99.90
2023-01-27T23:51:08.793Z,99.90
2023-01-27T23:53:36.513Z,99.90
2023-01-27T23:56:05.246Z,99.90
2023-01-27T23:58:33.191Z,99.90
